PWSweather.com
Personal Weather Stations
Station Observations
SHAHALMS1
Eftra, Falkenberg, HA

EftraFalkenberg, HA

Lat: 56.85, Lon: 12.65

Elevation: 140

Station Type:

http://hem.passagen.se/risarp101

High Low Average
Temperature 57.9°F14.4°C 50.4°F10.2°C 53.6°F12.0°C
Dew Point 47.4°F8.6°C 40.5°F4.7°C 43.3°F6.3°C
Winds 20.1 mph 32.3 kmh 5.8 mph 9.3 kmh 10.0 mph W16.1 kmh W
Wind Gusts 37.9 mph61.0 kmh 7.9 mph12.7 kmh 19.0 mph30.6 kmh
Humidity 83% 57% 68%
Pressure 29.65 in1004.1 mb 29.36 in994.2 mb -
Precipitation 0.24 in6.1 mm - -
Hour Temp Dew Point Humidity Winds Wind Gusts Pressure Precip Precip Rate Daily Precip Total
12:00 AM 53.1°F11.7°C 42.4°F5.8°C 67% 12.8 mph W20.6 kmh W 22.2 mph35.7 kmh 29.39 in995.3 mb 0.00 in0.0 mm 0.00 in0.0 mm 0.00 in0.0 mm
12:15 AM 53.2°F11.8°C 42.2°F5.7°C 66% 8.8 mph W14.2 kmh W 15.4 mph24.8 kmh 29.39 in995.3 mb 0.00 in0.0 mm 0.00 in0.0 mm 0.00 in0.0 mm
12:30 AM 53.4°F11.9°C 42.7°F5.9°C 67% 13.0 mph W20.9 kmh W 18.3 mph29.5 kmh 29.41 in995.9 mb 0.00 in0.0 mm 0.00 in0.0 mm 0.00 in0.0 mm
12:45 AM 53.4°F11.9°C 42.3°F5.7°C 66% 14.0 mph WSW22.5 kmh WSW 20.8 mph33.5 kmh 29.36 in994.2 mb 0.00 in0.0 mm 0.00 in0.0 mm 0.00 in0.0 mm
01:00 AM 53.2°F11.8°C 41.8°F5.4°C 65% 13.2 mph W21.2 kmh W 20.8 mph33.5 kmh 29.39 in995.3 mb 0.00 in0.0 mm 0.00 in0.0 mm 0.00 in0.0 mm
01:15 AM 53.2°F11.8°C 42.2°F5.7°C 66% 12.9 mph W20.8 kmh W 31.5 mph50.7 kmh 29.39 in995.3 mb 0.00 in0.0 mm 0.00 in0.0 mm 0.00 in0.0 mm
01:30 AM 53.2°F11.8°C 42.2°F5.7°C 66% 11.6 mph W18.7 kmh W 23.6 mph38.0 kmh 29.39 in995.3 mb 0.00 in0.0 mm 0.00 in0.0 mm 0.00 in0.0 mm
01:45 AM 53.1°F11.7°C 42.0°F5.6°C 66% 13.1 mph W21.1 kmh W 31.5 mph50.7 kmh 29.39 in995.3 mb 0.00 in0.0 mm 0.00 in0.0 mm 0.00 in0.0 mm
02:00 AM 53.1°F11.7°C 42.0°F5.6°C 66% 9.9 mph W15.9 kmh W 12.9 mph20.8 kmh 29.39 in995.3 mb 0.00 in0.0 mm 0.00 in0.0 mm 0.00 in0.0 mm
02:15 AM 53.1°F11.7°C 42.4°F5.8°C 67% 9.8 mph W15.8 kmh W 14.0 mph22.5 kmh 29.41 in995.9 mb 0.00 in0.0 mm 0.00 in0.0 mm 0.00 in0.0 mm
02:30 AM 53.1°F11.7°C 41.6°F5.3°C 65% 13.7 mph W22.0 kmh W 28.3 mph45.5 kmh 29.41 in995.9 mb 0.00 in0.0 mm 0.00 in0.0 mm 0.00 in0.0 mm
02:45 AM 53.1°F11.7°C 41.6°F5.3°C 65% 17.6 mph WSW28.3 kmh WSW 27.6 mph44.4 kmh 29.45 in997.3 mb 0.00 in0.0 mm 0.00 in0.0 mm 0.00 in0.0 mm
03:00 AM 53.1°F11.7°C 41.2°F5.1°C 64% 13.9 mph WSW22.4 kmh WSW 30.4 mph48.9 kmh 29.45 in997.3 mb 0.00 in0.0 mm 0.00 in0.0 mm 0.00 in0.0 mm
03:15 AM 53.1°F11.7°C 41.6°F5.3°C 65% 12.3 mph W19.8 kmh W 21.1 mph34.0 kmh 29.45 in997.3 mb 0.00 in0.0 mm 0.00 in0.0 mm 0.00 in0.0 mm
03:30 AM 53.1°F11.7°C 41.2°F5.1°C 64% 12.2 mph W19.6 kmh W 17.9 mph28.8 kmh 29.45 in997.3 mb 0.00 in0.0 mm 0.00 in0.0 mm 0.00 in0.0 mm
03:45 AM 53.1°F11.7°C 40.8°F4.9°C 63% 13.1 mph W21.1 kmh W 25.8 mph41.5 kmh 29.45 in997.3 mb 0.00 in0.0 mm 0.00 in0.0 mm 0.00 in0.0 mm
04:00 AM 53.1°F11.7°C 40.8°F4.9°C 63% 14.9 mph SW24.0 kmh SW 20.8 mph33.5 kmh 29.47 in998.0 mb 0.00 in0.0 mm 0.00 in0.0 mm 0.00 in0.0 mm
04:15 AM 53.2°F11.8°C 41.0°F5.0°C 63% 14.7 mph WNW23.7 kmh WNW 20.8 mph33.5 kmh 29.45 in997.3 mb 0.00 in0.0 mm 0.00 in0.0 mm 0.00 in0.0 mm
04:30 AM 53.2°F11.8°C 41.0°F5.0°C 63% 8.6 mph W13.8 kmh W 13.6 mph21.9 kmh 29.45 in997.3 mb 0.00 in0.0 mm 0.00 in0.0 mm 0.00 in0.0 mm
04:45 AM 53.2°F11.8°C 40.5°F4.7°C 62% 12.0 mph W19.3 kmh W 30.8 mph49.6 kmh 29.47 in998.0 mb 0.00 in0.0 mm 0.00 in0.0 mm 0.00 in0.0 mm
05:00 AM 53.2°F11.8°C 40.5°F4.7°C 62% 9.7 mph W15.6 kmh W 20.0 mph32.2 kmh 29.47 in998.0 mb 0.00 in0.0 mm 0.00 in0.0 mm 0.00 in0.0 mm
05:15 AM 53.4°F11.9°C 40.7°F4.8°C 62% 13.1 mph W21.1 kmh W 31.1 mph50.1 kmh 29.47 in998.0 mb 0.00 in0.0 mm 0.00 in0.0 mm 0.00 in0.0 mm
05:30 AM 53.4°F11.9°C 40.7°F4.8°C 62% 13.2 mph WNW21.2 kmh WNW 31.1 mph50.1 kmh 29.50 in999.0 mb 0.00 in0.0 mm 0.00 in0.0 mm 0.00 in0.0 mm
05:45 AM 53.6°F12.0°C 41.3°F5.2°C 63% 8.9 mph W14.3 kmh W 11.5 mph18.5 kmh 29.50 in999.0 mb 0.00 in0.0 mm 0.00 in0.0 mm 0.00 in0.0 mm
06:00 AM 53.1°F11.7°C 42.4°F5.8°C 67% 8.7 mph W14.0 kmh W 10.7 mph17.2 kmh 29.50 in999.0 mb 0.00 in0.0 mm 0.00 in0.0 mm 0.00 in0.0 mm
06:15 AM 52.7°F11.5°C 41.3°F5.2°C 65% 20.1 mph W32.3 kmh W 37.9 mph61.0 kmh 29.50 in999.0 mb 0.00 in0.0 mm 0.00 in0.0 mm 0.00 in0.0 mm
06:30 AM 53.1°F11.7°C 41.2°F5.1°C 64% 12.9 mph W20.8 kmh W 26.1 mph42.0 kmh 29.50 in999.0 mb 0.00 in0.0 mm 0.00 in0.0 mm 0.00 in0.0 mm
06:45 AM 53.6°F12.0°C 41.7°F5.4°C 64% 12.2 mph NW19.6 kmh NW 15.0 mph24.1 kmh 29.53 in1000.0 mb 0.00 in0.0 mm 0.00 in0.0 mm 0.00 in0.0 mm
07:00 AM 53.8°F12.1°C 42.3°F5.7°C 65% 8.1 mph WNW13.0 kmh WNW 12.2 mph19.6 kmh 29.53 in1000.0 mb 0.00 in0.0 mm 0.00 in0.0 mm 0.00 in0.0 mm
07:15 AM 53.8°F12.1°C 42.3°F5.7°C 65% 8.7 mph W14.0 kmh W 11.8 mph19.0 kmh 29.56 in1001.0 mb 0.00 in0.0 mm 0.00 in0.0 mm 0.00 in0.0 mm
07:30 AM 53.8°F12.1°C 41.9°F5.5°C 64% 14.4 mph W23.2 kmh W 21.5 mph34.6 kmh 29.56 in1001.0 mb 0.00 in0.0 mm 0.00 in0.0 mm 0.00 in0.0 mm
07:45 AM 54.3°F12.4°C 42.4°F5.8°C 64% 9.4 mph WSW15.1 kmh WSW 20.4 mph32.8 kmh 29.56 in1001.0 mb 0.00 in0.0 mm 0.00 in0.0 mm 0.00 in0.0 mm
08:00 AM 54.7°F12.6°C 42.7°F5.9°C 64% 8.9 mph W14.3 kmh W 17.2 mph27.7 kmh 29.56 in1001.0 mb 0.00 in0.0 mm 0.00 in0.0 mm 0.00 in0.0 mm
08:15 AM 54.7°F12.6°C 42.7°F5.9°C 64% 11.6 mph W18.7 kmh W 23.3 mph37.5 kmh 29.56 in1001.0 mb 0.00 in0.0 mm 0.00 in0.0 mm 0.00 in0.0 mm
08:30 AM 54.7°F12.6°C 42.3°F5.7°C 63% 9.3 mph W15.0 kmh W 19.7 mph31.7 kmh 29.56 in1001.0 mb 0.00 in0.0 mm 0.00 in0.0 mm 0.00 in0.0 mm
08:45 AM 55.2°F12.9°C 42.8°F6.0°C 63% 7.7 mph W12.4 kmh W 12.5 mph20.1 kmh 29.59 in1002.0 mb 0.00 in0.0 mm 0.00 in0.0 mm 0.00 in0.0 mm
09:00 AM 55.2°F12.9°C 42.8°F6.0°C 63% 10.2 mph W16.4 kmh W 12.5 mph20.1 kmh 29.59 in1002.0 mb 0.00 in0.0 mm 0.00 in0.0 mm 0.00 in0.0 mm
09:15 AM 55.4°F13.0°C 43.8°F6.6°C 65% 9.9 mph W15.9 kmh W 16.8 mph27.0 kmh 29.59 in1002.0 mb 0.00 in0.0 mm 0.00 in0.0 mm 0.00 in0.0 mm
09:30 AM 55.9°F13.3°C 43.5°F6.4°C 63% 8.2 mph W13.2 kmh W 16.1 mph25.9 kmh 29.59 in1002.0 mb 0.00 in0.0 mm 0.00 in0.0 mm 0.00 in0.0 mm
09:45 AM 56.7°F13.7°C 44.2°F6.8°C 63% 9.0 mph W14.5 kmh W 23.6 mph38.0 kmh 29.62 in1003.0 mb 0.00 in0.0 mm 0.00 in0.0 mm 0.00 in0.0 mm
10:00 AM 56.7°F13.7°C 44.2°F6.8°C 63% 6.4 mph S10.3 kmh S 7.9 mph12.7 kmh 29.62 in1003.0 mb 0.00 in0.0 mm 0.00 in0.0 mm 0.00 in0.0 mm
10:15 AM 57.2°F14.0°C 44.3°F6.8°C 62% 8.8 mph W14.2 kmh W 16.5 mph26.6 kmh 29.62 in1003.0 mb 0.00 in0.0 mm 0.00 in0.0 mm 0.00 in0.0 mm
10:30 AM 57.0°F13.9°C 43.7°F6.5°C 61% 11.7 mph W18.8 kmh W 26.1 mph42.0 kmh 29.62 in1003.0 mb 0.00 in0.0 mm 0.00 in0.0 mm 0.00 in0.0 mm
10:45 AM 57.9°F14.4°C 44.5°F6.9°C 61% 10.5 mph WSW16.9 kmh WSW 23.6 mph38.0 kmh 29.62 in1003.0 mb 0.00 in0.0 mm 0.00 in0.0 mm 0.00 in0.0 mm
11:00 AM 57.7°F14.3°C 43.9°F6.6°C 60% 12.0 mph W19.3 kmh W 21.1 mph34.0 kmh 29.62 in1003.0 mb 0.00 in0.0 mm 0.00 in0.0 mm 0.00 in0.0 mm
11:15 AM 57.0°F13.9°C 41.9°F5.5°C 57% 11.4 mph W18.3 kmh W 28.3 mph45.5 kmh 29.62 in1003.0 mb 0.00 in0.0 mm 0.00 in0.0 mm 0.00 in0.0 mm
11:30 AM 56.7°F13.7°C 42.0°F5.6°C 58% 8.4 mph W13.5 kmh W 15.7 mph25.3 kmh 29.65 in1004.1 mb 0.00 in0.0 mm 0.00 in0.0 mm 0.00 in0.0 mm
11:45 AM 56.3°F13.5°C 42.6°F5.9°C 60% 11.1 mph W17.9 kmh W 20.0 mph32.2 kmh 29.62 in1003.0 mb 0.00 in0.0 mm 0.00 in0.0 mm 0.00 in0.0 mm
12:00 PM 55.0°F12.8°C 42.7°F5.9°C 63% 7.0 mph W11.3 kmh W 13.6 mph21.9 kmh 29.65 in1004.1 mb 0.00 in0.0 mm 0.00 in0.0 mm 0.00 in0.0 mm
12:15 PM 55.6°F13.1°C 43.6°F6.4°C 64% 7.3 mph WSW11.7 kmh WSW 14.0 mph22.5 kmh 29.62 in1003.0 mb 0.00 in0.0 mm 0.00 in0.0 mm 0.00 in0.0 mm
12:30 PM 55.2°F12.9°C 42.8°F6.0°C 63% 9.3 mph W15.0 kmh W 19.7 mph31.7 kmh 29.62 in1003.0 mb 0.00 in0.0 mm 0.00 in0.0 mm 0.00 in0.0 mm
12:45 PM 55.4°F13.0°C 43.8°F6.6°C 65% 8.2 mph W13.2 kmh W 20.8 mph33.5 kmh 29.62 in1003.0 mb 0.00 in0.0 mm 0.00 in0.0 mm 0.00 in0.0 mm
01:00 PM 53.6°F12.0°C 42.9°F6.1°C 67% 7.7 mph W12.4 kmh W 20.4 mph32.8 kmh 29.62 in1003.0 mb 0.00 in0.0 mm 0.00 in0.0 mm 0.00 in0.0 mm
01:15 PM 54.7°F12.6°C 45.5°F7.5°C 71% 6.7 mph W10.8 kmh W 12.5 mph20.1 kmh 29.62 in1003.0 mb 0.00 in0.0 mm 0.00 in0.0 mm 0.00 in0.0 mm
01:30 PM 55.4°F13.0°C 45.4°F7.4°C 69% 6.4 mph WNW10.3 kmh WNW 17.2 mph27.7 kmh 29.62 in1003.0 mb 0.00 in0.0 mm 0.00 in0.0 mm 0.00 in0.0 mm
01:45 PM 52.7°F11.5°C 41.7°F5.4°C 66% 6.1 mph W9.8 kmh W 19.3 mph31.1 kmh 29.62 in1003.0 mb 0.09 in2.3 mm 0.36 in9.1 mm 0.09 in2.3 mm
02:00 PM 52.9°F11.6°C 43.4°F6.3°C 70% 6.2 mph W10.0 kmh W 15.4 mph24.8 kmh 29.62 in1003.0 mb 0.09 in2.3 mm 0.00 in0.0 mm 0.09 in2.3 mm
02:15 PM 54.1°F12.3°C 46.0°F7.8°C 74% 8.6 mph W13.8 kmh W 16.1 mph25.9 kmh 29.62 in1003.0 mb 0.09 in2.3 mm 0.00 in0.0 mm 0.09 in2.3 mm
02:30 PM 54.5°F12.5°C 43.8°F6.6°C 67% 9.1 mph W14.6 kmh W 16.8 mph27.0 kmh 29.65 in1004.1 mb 0.09 in2.3 mm 0.00 in0.0 mm 0.09 in2.3 mm
02:45 PM 54.7°F12.6°C 43.9°F6.6°C 67% 7.8 mph W12.6 kmh W 15.4 mph24.8 kmh 29.62 in1003.0 mb 0.00 in0.0 mm 0.00 in0.0 mm 0.09 in2.3 mm
03:00 PM 54.7°F12.6°C 43.5°F6.4°C 66% 7.7 mph W12.4 kmh W 17.2 mph27.7 kmh 29.62 in1003.0 mb 0.00 in0.0 mm 0.00 in0.0 mm 0.09 in2.3 mm
03:15 PM 53.8°F12.1°C 43.5°F6.4°C 68% 6.5 mph W10.5 kmh W 13.6 mph21.9 kmh 29.59 in1002.0 mb 0.05 in1.3 mm 0.20 in5.1 mm 0.14 in3.6 mm
03:30 PM 53.8°F12.1°C 44.2°F6.8°C 70% 7.4 mph W11.9 kmh W 14.0 mph22.5 kmh 29.62 in1003.0 mb 0.05 in1.3 mm 0.00 in0.0 mm 0.14 in3.6 mm
04:00 PM 54.1°F12.3°C 44.2°F6.8°C 69% 6.8 mph W10.9 kmh W 10.0 mph16.1 kmh 29.62 in1003.0 mb 0.05 in1.3 mm 0.00 in0.0 mm 0.14 in3.6 mm
04:15 PM 54.5°F12.5°C 44.2°F6.8°C 68% 7.0 mph W11.3 kmh W 16.5 mph26.6 kmh 29.62 in1003.0 mb 0.00 in0.0 mm 0.00 in0.0 mm 0.14 in3.6 mm
04:30 PM 54.5°F12.5°C 43.4°F6.3°C 66% 7.3 mph W11.7 kmh W 19.3 mph31.1 kmh 29.62 in1003.0 mb 0.00 in0.0 mm 0.00 in0.0 mm 0.14 in3.6 mm
04:45 PM 54.0°F12.2°C 42.9°F6.1°C 66% 6.5 mph WNW10.5 kmh WNW 13.6 mph21.9 kmh 29.62 in1003.0 mb 0.00 in0.0 mm 0.00 in0.0 mm 0.14 in3.6 mm
05:00 PM 52.9°F11.6°C 42.6°F5.9°C 68% 5.8 mph WNW9.3 kmh WNW 14.0 mph22.5 kmh 29.62 in1003.0 mb 0.00 in0.0 mm 0.00 in0.0 mm 0.14 in3.6 mm
05:15 PM 51.6°F10.9°C 42.2°F5.7°C 70% 7.1 mph W11.4 kmh W 19.0 mph30.6 kmh 29.62 in1003.0 mb 0.00 in0.0 mm 0.00 in0.0 mm 0.14 in3.6 mm
05:30 PM 50.7°F10.4°C 43.4°F6.3°C 76% 10.4 mph W16.7 kmh W 24.3 mph39.1 kmh 29.62 in1003.0 mb 0.00 in0.0 mm 0.00 in0.0 mm 0.14 in3.6 mm
05:45 PM 50.4°F10.2°C 43.4°F6.3°C 77% 7.1 mph W11.4 kmh W 16.8 mph27.0 kmh 29.62 in1003.0 mb 0.00 in0.0 mm 0.00 in0.0 mm 0.14 in3.6 mm
06:00 PM 50.5°F10.3°C 43.9°F6.6°C 78% 7.8 mph W12.6 kmh W 18.3 mph29.5 kmh 29.59 in1002.0 mb 0.00 in0.0 mm 0.00 in0.0 mm 0.14 in3.6 mm
06:15 PM 50.5°F10.3°C 43.6°F6.4°C 77% 7.7 mph W12.4 kmh W 17.5 mph28.2 kmh 29.59 in1002.0 mb 0.05 in1.3 mm 0.20 in5.1 mm 0.18 in4.6 mm
06:30 PM 50.7°F10.4°C 43.4°F6.3°C 76% 7.0 mph W11.3 kmh W 14.0 mph22.5 kmh 29.59 in1002.0 mb 0.05 in1.3 mm 0.00 in0.0 mm 0.18 in4.6 mm
06:45 PM 51.1°F10.6°C 44.1°F6.7°C 77% 10.4 mph W16.7 kmh W 20.8 mph33.5 kmh 29.59 in1002.0 mb 0.05 in1.3 mm 0.00 in0.0 mm 0.18 in4.6 mm
07:00 PM 51.6°F10.9°C 43.2°F6.2°C 73% 9.1 mph W14.6 kmh W 17.5 mph28.2 kmh 29.59 in1002.0 mb 0.05 in1.3 mm 0.00 in0.0 mm 0.18 in4.6 mm
07:15 PM 52.0°F11.1°C 43.2°F6.2°C 72% 8.2 mph W13.2 kmh W 12.5 mph20.1 kmh 29.59 in1002.0 mb 0.00 in0.0 mm 0.00 in0.0 mm 0.18 in4.6 mm
07:30 PM 52.0°F11.1°C 43.2°F6.2°C 72% 10.6 mph W17.1 kmh W 23.3 mph37.5 kmh 29.59 in1002.0 mb 0.00 in0.0 mm 0.00 in0.0 mm 0.18 in4.6 mm
07:45 PM 52.3°F11.3°C 43.6°F6.4°C 72% 9.3 mph W15.0 kmh W 19.7 mph31.7 kmh 29.59 in1002.0 mb 0.00 in0.0 mm 0.00 in0.0 mm 0.18 in4.6 mm
08:00 PM 52.2°F11.2°C 44.1°F6.7°C 74% 10.8 mph W17.4 kmh W 20.8 mph33.5 kmh 29.59 in1002.0 mb 0.00 in0.0 mm 0.00 in0.0 mm 0.18 in4.6 mm
08:16 PM 52.3°F11.3°C 44.6°F7.0°C 75% 7.4 mph WSW11.9 kmh WSW 16.5 mph26.6 kmh 29.59 in1002.0 mb 0.00 in0.0 mm 0.00 in0.0 mm 0.18 in4.6 mm
08:30 PM 51.4°F10.8°C 44.8°F7.1°C 78% 10.0 mph W16.1 kmh W 21.1 mph34.0 kmh 29.59 in1002.0 mb 0.06 in1.5 mm 0.26 in6.6 mm 0.24 in6.1 mm
08:45 PM 51.4°F10.8°C 45.8°F7.7°C 81% 8.1 mph W13.0 kmh W 15.7 mph25.3 kmh 29.59 in1002.0 mb 0.06 in1.5 mm 0.00 in0.0 mm 0.24 in6.1 mm
09:00 PM 51.6°F10.9°C 46.6°F8.1°C 83% 8.9 mph W14.3 kmh W 16.1 mph25.9 kmh 29.59 in1002.0 mb 0.06 in1.5 mm 0.00 in0.0 mm 0.24 in6.1 mm
09:15 PM 51.8°F11.0°C 46.8°F8.2°C 83% 8.6 mph W13.8 kmh W 14.7 mph23.7 kmh 29.62 in1003.0 mb 0.06 in1.5 mm 0.00 in0.0 mm 0.24 in6.1 mm
09:30 PM 52.2°F11.2°C 47.2°F8.4°C 83% 9.3 mph W15.0 kmh W 16.1 mph25.9 kmh 29.59 in1002.0 mb 0.00 in0.0 mm 0.00 in0.0 mm 0.24 in6.1 mm
09:45 PM 52.2°F11.2°C 47.2°F8.4°C 83% 8.7 mph W14.0 kmh W 27.2 mph43.8 kmh 29.59 in1002.0 mb 0.00 in0.0 mm 0.00 in0.0 mm 0.24 in6.1 mm
10:00 PM 52.2°F11.2°C 47.2°F8.4°C 83% 8.7 mph W14.0 kmh W 16.1 mph25.9 kmh 29.59 in1002.0 mb 0.00 in0.0 mm 0.00 in0.0 mm 0.24 in6.1 mm
10:15 PM 52.3°F11.3°C 47.0°F8.3°C 82% 9.0 mph W14.5 kmh W 20.0 mph32.2 kmh 29.59 in1002.0 mb 0.00 in0.0 mm 0.00 in0.0 mm 0.24 in6.1 mm
10:30 PM 52.5°F11.4°C 46.9°F8.3°C 81% 7.4 mph NW11.9 kmh NW 9.3 mph15.0 kmh 29.62 in1003.0 mb 0.00 in0.0 mm 0.00 in0.0 mm 0.24 in6.1 mm
10:45 PM 52.7°F11.5°C 47.4°F8.6°C 82% 13.5 mph W21.7 kmh W 24.3 mph39.1 kmh 29.62 in1003.0 mb 0.00 in0.0 mm 0.00 in0.0 mm 0.24 in6.1 mm
11:00 PM 52.5°F11.4°C 46.2°F7.9°C 79% 8.4 mph W13.5 kmh W 13.6 mph21.9 kmh 29.62 in1003.0 mb 0.00 in0.0 mm 0.00 in0.0 mm 0.25 in6.4 mm
11:15 PM 52.3°F11.3°C 45.7°F7.6°C 78% 9.9 mph W15.9 kmh W 20.0 mph32.2 kmh 29.62 in1003.0 mb 0.00 in0.0 mm 0.00 in0.0 mm 0.25 in6.4 mm
11:30 PM 52.3°F11.3°C 45.3°F7.4°C 77% 10.4 mph W16.7 kmh W 27.9 mph44.9 kmh 29.62 in1003.0 mb 0.00 in0.0 mm 0.00 in0.0 mm 0.25 in6.4 mm
11:45 PM 52.7°F11.5°C 45.0°F7.2°C 75% 11.6 mph W18.7 kmh W 27.6 mph44.4 kmh 29.62 in1003.0 mb 0.00 in0.0 mm 0.00 in0.0 mm 0.25 in6.4 mm